Time;durP1;ratioP1;P1;durP2;ratioP2;P2;SDS_P1;SDS_P2;PMS_P1;PMS_P2;Temp;Humidity;BMP_temperature;BMP_pressure;BME280_temperature;BME280_humidity;BME280_pressure;Samples;Min_cycle;Max_cycle;Signal;HPM_P1;HPM_P2
2022/01/09 00:01:41;;;;;;;4.03;1.82;;;;;;;4.28;44.80;100910.23;1777695;79;21116;-65
2022/01/09 00:04:09;;;;;;;5.78;2.35;;;;;;;4.15;45.05;100901.36;1768645;80;21160;-65
2022/01/09 00:06:36;;;;;;;7.22;2.47;;;;;;;4.17;45.09;100896.09;1759400;80;21050;-66
2022/01/09 00:09:04;;;;;;;9.50;2.47;;;;;;;4.22;45.06;100895.71;1759570;80;21551;-67
2022/01/09 00:11:30;;;;;;;7.47;2.40;;;;;;;4.12;45.08;100900.80;1759487;80;21100;-65
2022/01/09 00:13:57;;;;;;;7.47;2.33;;;;;;;4.13;45.15;100890.84;1760287;80;20970;-65
2022/01/09 00:16:24;;;;;;;6.97;2.27;;;;;;;4.24;45.09;100886.06;1757038;80;21173;-65
2022/01/09 00:18:51;;;;;;;8.45;2.37;;;;;;;4.38;44.96;100885.27;1759952;80;20945;-65
2022/01/09 00:21:18;;;;;;;8.13;3.00;;;;;;;4.26;45.12;100884.19;1754737;80;20989;-68
2022/01/09 00:23:45;;;;;;;7.15;2.83;;;;;;;4.23;45.18;100883.96;1728269;81;21092;-65
2022/01/09 00:26:12;;;;;;;7.08;2.45;;;;;;;4.44;44.96;100884.44;1759809;80;21122;-65
2022/01/09 00:28:42;;;;;;;7.78;2.77;;;;;;;4.46;44.86;100880.77;1760748;81;21087;-65
2022/01/09 00:31:09;;;;;;;5.17;1.95;;;;;;;4.35;44.89;100867.93;1755503;80;20991;-65
2022/01/09 00:33:35;;;;;;;5.85;2.20;;;;;;;4.53;44.47;100867.69;1757508;80;21642;-64
2022/01/09 00:36:01;;;;;;;7.25;2.50;;;;;;;4.46;44.41;100867.86;1759753;80;20934;-64
2022/01/09 00:38:30;;;;;;;5.87;2.10;;;;;;;4.54;44.52;100862.86;1757555;81;20962;-63
2022/01/09 00:40:58;;;;;;;7.05;2.77;;;;;;;4.43;44.56;100860.36;1757888;80;21114;-66
2022/01/09 00:43:27;;;;;;;5.30;2.12;;;;;;;4.46;44.39;100851.55;1749128;80;21354;-64
2022/01/09 00:45:53;;;;;;;6.45;2.05;;;;;;;4.48;44.43;100842.74;1760840;80;21677;-63
2022/01/09 00:48:20;;;;;;;9.75;2.02;;;;;;;4.53;44.33;100842.34;1725516;80;21073;-63
2022/01/09 00:50:47;;;;;;;6.97;1.87;;;;;;;4.69;43.92;100841.39;1713735;83;20966;-65
2022/01/09 00:53:14;;;;;;;4.92;2.00;;;;;;;4.48;44.31;100843.22;1759148;80;21143;-62
2022/01/09 00:55:43;;;;;;;4.95;1.70;;;;;;;4.06;44.75;100839.40;1760968;80;21037;-63
2022/01/09 00:58:10;;;;;;;4.45;1.72;;;;;;;4.38;44.46;100847.03;1760241;80;21022;-63
2022/01/09 01:00:39;;;;;;;5.00;1.70;;;;;;;4.38;44.48;100830.25;1761591;80;21088;-68
2022/01/09 01:03:05;;;;;;;4.70;2.35;;;;;;;4.43;44.32;100825.52;1757780;80;20915;-67
2022/01/09 01:05:31;;;;;;;4.67;1.80;;;;;;;3.96;45.01;100821.27;1757513;81;21138;-62
2022/01/09 01:07:58;;;;;;;8.20;2.75;;;;;;;4.08;45.38;100814.27;1757936;80;20883;-62
2022/01/09 01:10:26;;;;;;;5.60;2.30;;;;;;;3.72;46.05;100811.69;1757383;80;21038;-61
2022/01/09 01:12:55;;;;;;;6.53;2.40;;;;;;;3.89;45.89;100809.81;1759917;81;20935;-67
2022/01/09 01:15:29;;;;;;;5.03;1.65;;;;;;;4.12;45.71;100800.98;1756546;81;21452;-61
2022/01/09 01:17:56;;;;;;;4.87;1.95;;;;;;;4.08;45.34;100797.03;1759872;80;22096;-62
2022/01/09 01:20:23;;;;;;;7.37;2.10;;;;;;;4.19;45.42;100789.69;1750149;80;21015;-61
2022/01/09 01:22:51;;;;;;;5.45;1.82;;;;;;;4.26;45.33;100784.84;1760470;80;20930;-63
2022/01/09 01:25:20;;;;;;;7.33;2.40;;;;;;;4.15;45.58;100780.09;1757650;81;21072;-63
2022/01/09 01:27:50;;;;;;;5.58;2.00;;;;;;;4.13;45.56;100779.91;1761318;80;20990;-61
2022/01/09 01:30:18;;;;;;;4.17;1.80;;;;;;;4.06;45.79;100774.91;1756154;81;21129;-62
2022/01/09 01:32:44;;;;;;;5.78;1.90;;;;;;;4.34;45.43;100768.23;1757861;80;20922;-63
2022/01/09 01:35:12;;;;;;;4.67;2.08;;;;;;;4.46;45.20;100756.05;1760472;80;21037;-68
2022/01/09 01:37:41;;;;;;;4.15;1.50;;;;;;;4.51;45.17;100757.30;1761043;80;22360;-61
2022/01/09 01:40:15;;;;;;;4.55;1.85;;;;;;;4.77;44.74;100751.63;1760031;80;21414;-64
2022/01/09 01:42:43;;;;;;;6.17;2.20;;;;;;;4.92;44.33;100741.25;1757836;81;21138;-63
2022/01/09 01:45:11;;;;;;;4.45;2.20;;;;;;;4.94;44.22;100738.08;1758072;81;22567;-68
2022/01/09 01:47:39;;;;;;;5.40;1.90;;;;;;;4.93;44.09;100730.47;1760471;81;20962;-64
2022/01/09 01:50:08;;;;;;;5.37;1.82;;;;;;;4.86;44.21;100723.73;1757843;80;21797;-67
2022/01/09 01:52:41;;;;;;;5.17;1.80;;;;;;;5.08;43.97;100723.95;1761451;80;21025;-63
2022/01/09 01:55:09;;;;;;;3.90;1.75;;;;;;;5.16;43.95;100729.73;1760129;80;21196;-64
2022/01/09 01:57:41;;;;;;;4.80;1.80;;;;;;;5.26;43.73;100707.27;1761276;80;21595;-64
2022/01/09 02:00:13;;;;;;;4.20;1.57;;;;;;;5.12;43.91;100722.25;1756892;80;23366;-63
2022/01/09 02:02:39;;;;;;;5.40;1.62;;;;;;;4.52;44.63;100722.78;1727765;81;20987;-64
2022/01/09 02:05:07;;;;;;;6.05;1.50;;;;;;;4.82;44.69;100708.16;1754977;80;21050;-63
2022/01/09 02:07:34;;;;;;;5.22;1.92;;;;;;;5.06;43.99;100703.40;1759464;80;21942;-62
2022/01/09 02:10:01;;;;;;;4.65;2.08;;;;;;;5.15;43.71;100708.22;1758258;81;20911;-64
2022/01/09 02:12:29;;;;;;;4.70;2.00;;;;;;;5.02;44.12;100695.58;1759269;81;21021;-62
2022/01/09 02:14:56;;;;;;;5.33;1.92;;;;;;;4.91;44.23;100704.75;1759009;80;20867;-62
2022/01/09 02:17:23;;;;;;;5.28;1.87;;;;;;;5.17;43.89;100688.23;1749425;81;22506;-63
2022/01/09 02:19:55;;;;;;;5.55;1.90;;;;;;;5.20;43.65;100681.50;1761071;80;21164;-63
2022/01/09 02:22:30;;;;;;;5.22;1.52;;;;;;;5.29;43.45;100674.69;1758777;81;22005;-63
2022/01/09 02:24:54;;;;;;;3.65;1.40;;;;;;;5.16;43.65;100683.22;1758368;81;20987;-63
2022/01/09 02:27:23;;;;;;;5.55;1.70;;;;;;;5.05;43.73;100674.64;1758591;80;22341;-61
2022/01/09 02:29:49;;;;;;;3.02;1.50;;;;;;;5.08;43.80;100672.27;1758272;80;20899;-62
2022/01/09 02:32:16;;;;;;;4.05;1.32;;;;;;;4.91;44.15;100665.20;1757210;81;21678;-61
2022/01/09 02:34:50;;;;;;;4.10;1.60;;;;;;;4.96;44.06;100667.70;1759557;81;20965;-68
2022/01/09 02:37:17;;;;;;;4.45;1.60;;;;;;;4.96;43.95;100662.53;1756087;81;21099;-61
2022/01/09 02:39:44;;;;;;;3.98;1.40;;;;;;;5.08;43.76;100657.58;1758819;81;21481;-67
2022/01/09 02:42:26;;;;;;;4.55;1.65;;;;;;;4.90;44.03;100663.09;1756959;81;21634;-62
2022/01/09 02:44:52;;;;;;;3.62;1.22;;;;;;;4.97;44.06;100650.45;1761135;80;21125;-63
2022/01/09 02:47:20;;;;;;;4.17;1.77;;;;;;;4.92;44.10;100662.46;1759762;81;21512;-64
2022/01/09 02:49:48;;;;;;;2.75;1.42;;;;;;;5.08;43.84;100659.36;1759736;80;21448;-63
2022/01/09 02:52:34;;;;;;;4.17;2.00;;;;;;;5.05;43.74;100659.14;1757479;80;21068;-66
2022/01/09 02:55:11;;;;;;;4.40;1.52;;;;;;;5.15;43.52;100653.95;1758292;81;21542;-64
2022/01/09 02:57:35;;;;;;;4.30;1.65;;;;;;;5.12;43.32;100657.64;1758469;80;21104;-63
2022/01/09 03:00:02;;;;;;;5.70;1.52;;;;;;;5.06;43.46;100652.20;1758141;80;21460;-69
2022/01/09 03:02:29;;;;;;;4.40;1.65;;;;;;;5.02;43.64;100654.24;1760269;80;21083;-63
2022/01/09 03:04:56;;;;;;;3.80;1.40;;;;;;;5.37;43.42;100652.83;1758319;80;21019;-64
2022/01/09 03:07:22;;;;;;;6.62;1.42;;;;;;;5.38;43.38;100648.02;1747518;81;20993;-66
2022/01/09 03:09:49;;;;;;;6.55;2.02;;;;;;;5.31;43.43;100640.48;1757496;80;21171;-63
2022/01/09 03:12:15;;;;;;;3.60;1.40;;;;;;;5.37;43.31;100638.61;1759172;80;20972;-61
2022/01/09 03:14:42;;;;;;;6.15;2.05;;;;;;;5.37;43.41;100646.36;1760565;80;21492;-62
2022/01/09 03:17:08;;;;;;;4.70;1.70;;;;;;;5.56;43.20;100633.38;1758793;81;20939;-61
2022/01/09 03:19:35;;;;;;;4.40;1.45;;;;;;;5.59;43.12;100622.76;1756810;81;20974;-62
2022/01/09 03:22:02;;;;;;;4.28;1.87;;;;;;;5.59;43.12;100625.34;1756624;81;21052;-63
2022/01/09 03:24:28;;;;;;;4.35;1.50;;;;;;;5.43;43.31;100614.80;1761010;80;21059;-62
2022/01/09 03:26:57;;;;;;;5.95;2.05;;;;;;;5.36;43.72;100617.13;1759955;80;21003;-62
2022/01/09 03:29:25;;;;;;;3.90;1.80;;;;;;;5.49;43.64;100617.28;1751215;80;21010;-68
2022/01/09 03:31:53;;;;;;;4.95;1.87;;;;;;;5.63;43.41;100618.61;1760392;80;20927;-67
2022/01/09 03:34:20;;;;;;;5.25;1.50;;;;;;;5.85;42.92;100615.66;1759005;80;21738;-61
2022/01/09 03:36:47;;;;;;;4.67;1.70;;;;;;;5.04;44.10;100617.47;1759344;80;21156;-61
2022/01/09 03:39:13;;;;;;;6.62;1.55;;;;;;;5.25;44.07;100622.45;1755673;81;21604;-60
2022/01/09 03:41:39;;;;;;;5.62;1.82;;;;;;;5.33;44.00;100608.83;1757720;81;20998;-66
2022/01/09 03:44:06;;;;;;;4.72;1.62;;;;;;;5.36;44.02;100597.73;1757803;81;20966;-60
2022/01/09 03:46:35;;;;;;;4.72;1.80;;;;;;;5.44;44.01;100590.56;1759110;81;21147;-60
2022/01/09 03:49:02;;;;;;;3.22;1.30;;;;;;;5.53;43.92;100587.14;1758827;81;21068;-62
2022/01/09 03:51:33;;;;;;;5.78;2.10;;;;;;;5.53;43.86;100588.44;1760404;81;21045;-62
2022/01/09 03:53:57;;;;;;;3.90;1.52;;;;;;;5.56;43.85;100588.12;1754502;81;20895;-69
2022/01/09 03:56:26;;;;;;;5.37;1.65;;;;;;;5.67;43.74;100587.62;1748127;80;21001;-62
2022/01/09 03:58:52;;;;;;;5.90;2.30;;;;;;;5.71;43.65;100578.61;1758728;80;21179;-62
2022/01/09 04:01:19;;;;;;;5.72;2.65;;;;;;;5.69;43.80;100571.50;1718707;79;21117;-60
2022/01/09 04:03:45;;;;;;;5.62;1.80;;;;;;;5.68;43.72;100574.53;1711503;82;21477;-66
2022/01/09 04:06:13;;;;;;;5.53;2.15;;;;;;;5.83;43.62;100574.88;1710612;83;20951;-62
2022/01/09 04:08:44;;;;;;;8.05;3.20;;;;;;;6.03;43.41;100579.03;1709160;83;22073;-61
2022/01/09 04:11:11;;;;;;;6.53;2.15;;;;;;;6.15;43.17;100573.16;1708655;82;21814;-61
2022/01/09 04:13:40;;;;;;;7.00;2.83;;;;;;;6.17;43.23;100575.11;1711045;82;20971;-61
2022/01/09 04:16:07;;;;;;;6.80;2.37;;;;;;;6.06;43.38;100574.02;1708726;83;20927;-66
2022/01/09 04:18:34;;;;;;;7.42;1.90;;;;;;;6.08;43.36;100565.16;1710737;83;21501;-61
2022/01/09 04:21:00;;;;;;;5.05;1.87;;;;;;;6.07;43.55;100553.19;1709350;82;21715;-61
2022/01/09 04:23:26;;;;;;;4.22;1.72;;;;;;;5.89;43.86;100556.20;1712546;82;21100;-63
2022/01/09 04:25:53;;;;;;;5.00;1.67;;;;;;;6.04;43.72;100544.42;1710319;82;21003;-66
2022/01/09 04:28:19;;;;;;;4.60;2.17;;;;;;;6.09;43.76;100538.31;1712505;82;22367;-66
2022/01/09 04:30:46;;;;;;;5.10;2.17;;;;;;;5.86;44.24;100543.55;1709439;83;20912;-61
2022/01/09 04:33:13;;;;;;;6.72;2.75;;;;;;;5.56;44.60;100541.59;1710052;83;21022;-62
2022/01/09 04:35:42;;;;;;;5.05;1.67;;;;;;;5.96;44.33;100535.77;1711790;83;21822;-61
2022/01/09 04:38:08;;;;;;;6.85;2.70;;;;;;;6.15;44.08;100524.47;1709507;83;20932;-60
2022/01/09 04:40:37;;;;;;;8.10;3.08;;;;;;;6.18;43.98;100531.46;1709481;82;21626;-63
2022/01/09 04:43:06;;;;;;;5.83;2.42;;;;;;;6.18;43.99;100534.05;1711191;82;21041;-61
2022/01/09 04:45:32;;;;;;;4.60;2.15;;;;;;;6.14;44.18;100533.17;1710026;83;20983;-61
2022/01/09 04:48:06;;;;;;;5.30;2.37;;;;;;;6.24;43.97;100523.57;1707952;83;21141;-62
2022/01/09 04:50:34;;;;;;;5.42;2.17;;;;;;;6.20;44.06;100520.47;1712446;83;21002;-66
2022/01/09 04:53:05;;;;;;;4.60;1.95;;;;;;;6.26;44.01;100524.25;1709632;83;21559;-62
2022/01/09 04:55:30;;;;;;;7.12;2.47;;;;;;;6.32;44.04;100526.23;1709808;83;20982;-61
2022/01/09 04:58:01;;;;;;;5.92;2.40;;;;;;;6.45;43.89;100510.33;1708243;83;20983;-68
2022/01/09 05:00:27;;;;;;;8.63;2.67;;;;;;;6.31;43.76;100509.08;1701511;82;21180;-68
2022/01/09 05:02:54;;;;;;;5.67;2.50;;;;;;;6.57;43.64;100509.94;1698230;83;21482;-62
2022/01/09 05:05:20;;;;;;;5.85;2.10;;;;;;;6.56;43.73;100512.69;1685813;84;21531;-61
2022/01/09 05:07:48;;;;;;;7.15;3.55;;;;;;;6.77;43.37;100517.52;1699684;84;20908;-66
2022/01/09 05:10:15;;;;;;;6.17;2.75;;;;;;;6.62;43.57;100506.08;1698105;84;20943;-61
2022/01/09 05:12:42;;;;;;;6.95;2.30;;;;;;;6.21;44.33;100508.33;1699952;84;21021;-63
2022/01/09 05:15:10;;;;;;;7.42;2.77;;;;;;;6.24;44.29;100505.45;1696887;84;20999;-61
2022/01/09 05:17:36;;;;;;;4.30;1.90;;;;;;;6.41;44.26;100501.23;1699780;84;21660;-66
2022/01/09 05:20:04;;;;;;;4.60;2.20;;;;;;;6.41;44.15;100500.75;1697146;84;21011;-62
2022/01/09 05:22:30;;;;;;;5.53;2.25;;;;;;;5.86;45.00;100510.72;1699840;84;21157;-61
2022/01/09 05:25:01;;;;;;;5.30;2.35;;;;;;;5.88;45.32;100499.44;1697780;84;21767;-65
2022/01/09 05:27:29;;;;;;;5.00;2.62;;;;;;;5.91;45.47;100498.66;1692547;84;21003;-60
2022/01/09 05:29:56;;;;;;;7.80;2.58;;;;;;;5.89;45.49;100513.98;1697681;84;21556;-66
2022/01/09 05:32:24;;;;;;;6.15;2.00;;;;;;;5.69;45.86;100506.35;1699643;83;21174;-61
2022/01/09 05:34:51;;;;;;;6.67;2.45;;;;;;;5.63;46.17;100500.94;1699561;84;20947;-61
2022/01/09 05:37:18;;;;;;;5.45;2.45;;;;;;;5.71;46.27;100510.08;1697822;84;21196;-62
2022/01/09 05:39:44;;;;;;;5.28;2.45;;;;;;;5.85;46.00;100499.23;1699644;83;21033;-66
2022/01/09 05:42:12;;;;;;;5.65;2.50;;;;;;;6.02;45.58;100494.60;1697342;84;20995;-61
2022/01/09 05:44:39;;;;;;;4.70;2.20;;;;;;;6.06;45.56;100495.93;1699938;83;21003;-61
2022/01/09 05:47:06;;;;;;;5.47;2.42;;;;;;;6.15;45.49;100496.00;1697611;84;21036;-65
2022/01/09 05:49:32;;;;;;;5.12;2.37;;;;;;;6.07;45.86;100485.91;1699276;84;21116;-61
2022/01/09 05:52:00;;;;;;;7.15;3.87;;;;;;;6.04;45.83;100487.48;1696997;83;21234;-62
2022/01/09 05:54:33;;;;;;;6.25;2.95;;;;;;;5.49;46.70;100490.14;1699819;84;21167;-60
2022/01/09 05:56:59;;;;;;;9.18;4.20;;;;;;;5.99;46.34;100486.31;1697609;84;20944;-61
2022/01/09 05:59:27;;;;;;;8.10;4.37;;;;;;;5.94;46.18;100480.27;1699416;83;20999;-64
2022/01/09 06:01:55;;;;;;;8.45;4.25;;;;;;;5.92;46.47;100494.30;1704304;83;21813;-63
2022/01/09 06:04:22;;;;;;;14.55;8.05;;;;;;;5.97;46.44;100486.45;1712872;83;21007;-61
2022/01/09 06:06:49;;;;;;;10.60;6.25;;;;;;;6.08;46.31;100477.17;1712749;83;21054;-62
2022/01/09 06:09:16;;;;;;;13.08;6.50;;;;;;;6.15;46.35;100466.23;1710638;83;21062;-65
2022/01/09 06:11:45;;;;;;;10.85;5.60;;;;;;;6.28;46.14;100470.05;1714457;83;21027;-60
2022/01/09 06:14:12;;;;;;;6.00;2.77;;;;;;;6.25;46.22;100482.47;1710880;82;21156;-61
2022/01/09 06:16:39;;;;;;;6.05;2.65;;;;;;;6.22;46.34;100468.08;1715023;81;22150;-64
2022/01/09 06:19:06;;;;;;;6.55;2.72;;;;;;;6.40;46.19;100472.41;1712942;83;21098;-63
2022/01/09 06:21:36;;;;;;;4.67;2.90;;;;;;;6.14;46.70;100469.77;1714480;83;21074;-62
2022/01/09 06:24:03;;;;;;;5.15;2.35;;;;;;;6.08;46.78;100468.11;1713072;83;21104;-61
2022/01/09 06:26:31;;;;;;;5.60;2.50;;;;;;;6.09;46.95;100467.14;1714127;83;21126;-61
2022/01/09 06:29:00;;;;;;;5.80;2.70;;;;;;;6.40;46.65;100459.45;1713729;83;21584;-61
2022/01/09 06:31:28;;;;;;;7.83;3.40;;;;;;;6.56;46.39;100466.88;1711672;83;20986;-62
2022/01/09 06:33:54;;;;;;;6.92;2.87;;;;;;;6.43;46.74;100469.52;1712079;83;22243;-61
2022/01/09 06:36:21;;;;;;;7.45;3.90;;;;;;;6.58;45.77;100474.48;1715212;83;21579;-60
2022/01/09 06:38:48;;;;;;;9.35;3.65;;;;;;;6.45;46.55;100471.00;1712348;83;21780;-60
2022/01/09 06:41:17;;;;;;;7.83;3.30;;;;;;;6.52;46.78;100469.92;1712119;83;21545;-60
2022/01/09 06:43:44;;;;;;;6.33;3.27;;;;;;;6.81;46.41;100462.64;1712718;83;21053;-65
2022/01/09 06:46:11;;;;;;;7.37;3.33;;;;;;;6.97;46.34;100458.05;1711058;83;21002;-60
2022/01/09 06:48:37;;;;;;;6.28;3.42;;;;;;;6.80;46.15;100456.33;1715721;83;21070;-60
2022/01/09 06:51:03;;;;;;;7.58;2.83;;;;;;;6.90;46.25;100445.38;1715158;83;21177;-61
2022/01/09 06:53:30;;;;;;;5.67;3.25;;;;;;;7.06;46.12;100452.41;1715835;83;20990;-65
2022/01/09 06:56:01;;;;;;;6.78;2.70;;;;;;;7.02;46.51;100440.73;1712564;83;20967;-60
2022/01/09 06:58:28;;;;;;;7.87;3.00;;;;;;;7.08;46.32;100447.88;1703213;83;21492;-61
2022/01/09 07:00:54;;;;;;;7.55;3.80;;;;;;;6.87;46.66;100440.50;1714400;83;21074;-60
2022/01/09 07:03:21;;;;;;;7.30;3.20;;;;;;;6.79;46.96;100433.50;1706927;81;21753;-60
2022/01/09 07:05:49;;;;;;;6.25;3.00;;;;;;;7.09;46.90;100425.38;1705445;83;21383;-62
2022/01/09 07:08:17;;;;;;;7.58;3.25;;;;;;;7.16;46.89;100415.98;1699014;83;21474;-63
2022/01/09 07:10:46;;;;;;;7.55;3.10;;;;;;;7.14;47.03;100416.16;1700896;82;21072;-61
2022/01/09 07:13:16;;;;;;;5.90;2.67;;;;;;;7.33;46.85;100413.78;1705729;83;20967;-60
2022/01/09 07:15:44;;;;;;;5.20;2.95;;;;;;;7.06;47.21;100409.16;1703484;83;21579;-62
2022/01/09 07:18:17;;;;;;;6.58;2.75;;;;;;;7.39;47.14;100409.77;1705264;83;20987;-63
2022/01/09 07:20:44;;;;;;;8.10;3.33;;;;;;;7.39;46.96;100411.87;1704072;83;21733;-62
2022/01/09 07:23:10;;;;;;;6.12;2.77;;;;;;;7.49;47.06;100391.77;1704418;83;21085;-62
2022/01/09 07:25:38;;;;;;;6.83;3.52;;;;;;;7.60;46.99;100404.12;1703868;82;21002;-67
2022/01/09 07:28:08;;;;;;;6.33;2.72;;;;;;;7.65;46.86;100406.58;1707158;83;21108;-66
2022/01/09 07:30:36;;;;;;;7.05;3.12;;;;;;;7.71;46.89;100399.42;1706208;83;21607;-65
2022/01/09 07:33:04;;;;;;;6.72;2.98;;;;;;;7.76;47.00;100395.85;1707158;83;21070;-64
2022/01/09 07:35:31;;;;;;;6.25;3.17;;;;;;;7.73;47.04;100389.71;1705963;82;21118;-60
2022/01/09 07:37:58;;;;;;;8.43;3.95;;;;;;;7.78;47.43;100386.63;1701740;83;21030;-65
2022/01/09 07:40:25;;;;;;;8.33;3.62;;;;;;;8.02;47.12;100387.91;1703457;83;21162;-63
2022/01/09 07:42:51;;;;;;;6.17;3.00;;;;;;;8.02;47.25;100387.11;1704598;83;20992;-64
2022/01/09 07:45:25;;;;;;;9.33;4.72;;;;;;;7.97;47.53;100385.00;1701046;82;21046;-68
2022/01/09 07:47:47;;;;;;;8.03;3.55;;;;;;;7.97;47.60;100386.80;1705947;83;21006;-61
2022/01/09 07:50:15;;;;;;;8.28;3.62;;;;;;;8.07;47.51;100386.15;1707054;83;21084;-62
2022/01/09 07:52:42;;;;;;;6.53;3.25;;;;;;;8.10;47.59;100375.91;1674658;84;22464;-67
2022/01/09 07:55:09;;;;;;;7.97;3.20;;;;;;;8.20;47.74;100370.06;1705435;83;21003;-63
2022/01/09 07:57:38;;;;;;;6.87;3.40;;;;;;;8.21;47.72;100362.59;1705587;83;21043;-64
2022/01/09 08:00:08;;;;;;;10.90;5.28;;;;;;;8.05;48.09;100352.55;1705171;83;21149;-71
2022/01/09 08:02:41;;;;;;;7.15;3.47;;;;;;;7.88;48.77;100360.03;1698607;83;21094;-62
2022/01/09 08:05:09;;;;;;;7.85;3.70;;;;;;;8.11;48.48;100339.91;1699937;84;21492;-69
2022/01/09 08:07:36;;;;;;;7.83;3.60;;;;;;;8.21;48.30;100329.63;1701726;84;21531;-65
2022/01/09 08:10:05;;;;;;;7.28;3.60;;;;;;;8.25;48.30;100323.62;1699857;84;21478;-65
2022/01/09 08:12:34;;;;;;;6.28;3.37;;;;;;;8.28;48.32;100340.17;1701913;84;21380;-65
2022/01/09 08:15:00;;;;;;;9.48;3.80;;;;;;;8.37;48.28;100324.94;1699605;84;21031;-68
2022/01/09 08:17:29;;;;;;;9.65;4.42;;;;;;;8.19;48.87;100324.30;1701720;84;21130;-62
2022/01/09 08:19:55;;;;;;;8.03;4.42;;;;;;;8.07;49.23;100313.92;1693296;83;21079;-70
2022/01/09 08:22:28;;;;;;;6.60;3.70;;;;;;;7.97;49.63;100311.02;1692913;84;21011;-60
2022/01/09 08:24:52;;;;;;;7.40;4.00;;;;;;;8.22;49.50;100322.19;1694050;84;20927;-62
2022/01/09 08:27:18;;;;;;;7.75;4.10;;;;;;;8.63;48.80;100318.66;1700679;84;22335;-61
2022/01/09 08:29:45;;;;;;;7.25;3.95;;;;;;;9.15;47.90;100314.19;1699520;83;21154;-61
2022/01/09 08:32:13;;;;;;;6.58;3.45;;;;;;;8.97;47.69;100310.05;1692180;84;20928;-65
2022/01/09 08:34:43;;;;;;;6.42;3.15;;;;;;;9.07;47.80;100292.13;1696041;84;20952;-63
2022/01/09 08:37:11;;;;;;;7.03;3.35;;;;;;;9.13;47.56;100310.94;1686472;84;21026;-63
2022/01/09 08:39:42;;;;;;;5.40;2.77;;;;;;;9.20;47.26;100304.06;1692501;84;21536;-62
2022/01/09 08:42:16;;;;;;;7.22;2.98;;;;;;;9.19;47.15;100289.45;1691480;84;21051;-66
2022/01/09 08:44:42;;;;;;;7.75;3.33;;;;;;;8.93;47.47;100288.47;1692760;84;21101;-65
2022/01/09 08:47:13;;;;;;;7.85;3.55;;;;;;;8.77;47.83;100275.08;1692630;84;22316;-64
2022/01/09 08:49:40;;;;;;;6.05;3.05;;;;;;;8.73;48.19;100268.11;1700863;84;21544;-61
2022/01/09 08:52:08;;;;;;;5.60;3.15;;;;;;;9.07;47.88;100266.94;1701097;83;20868;-60
2022/01/09 08:54:34;;;;;;;8.63;3.17;;;;;;;9.71;46.87;100258.80;1700698;84;21108;-64
2022/01/09 08:57:01;;;;;;;5.17;2.70;;;;;;;9.49;46.85;100253.44;1700344;84;21066;-60
2022/01/09 08:59:27;;;;;;;5.70;2.92;;;;;;;9.27;47.24;100256.88;1701865;83;21047;-61
2022/01/09 09:01:54;;;;;;;7.97;4.22;;;;;;;9.24;47.41;100258.05;1701214;84;20956;-62
2022/01/09 09:04:20;;;;;;;8.50;3.80;;;;;;;9.41;47.51;100243.61;1713902;83;21525;-66
2022/01/09 09:06:47;;;;;;;7.67;3.92;;;;;;;9.46;47.18;100233.47;1707036;81;21150;-64
2022/01/09 09:09:13;;;;;;;7.45;3.55;;;;;;;9.52;47.28;100239.78;1713887;83;21308;-62
2022/01/09 09:11:40;;;;;;;9.85;4.20;;;;;;;9.41;47.41;100226.70;1714882;83;21003;-63
2022/01/09 09:14:06;;;;;;;6.58;3.40;;;;;;;9.55;47.27;100231.62;1712980;83;21474;-60
2022/01/09 09:16:32;;;;;;;7.25;3.50;;;;;;;9.53;47.50;100233.08;1711778;83;21068;-67
2022/01/09 09:18:59;;;;;;;7.17;3.33;;;;;;;9.40;47.53;100220.69;1713688;82;21118;-60
2022/01/09 09:21:26;;;;;;;7.08;3.65;;;;;;;9.27;47.85;100217.86;1712747;81;21029;-63
2022/01/09 09:23:53;;;;;;;13.95;6.47;;;;;;;9.41;47.58;100221.00;1715056;83;21015;-60
2022/01/09 09:26:21;;;;;;;20.17;7.97;;;;;;;9.25;47.87;100218.05;1714110;82;21074;-60
2022/01/09 09:28:48;;;;;;;8.38;3.33;;;;;;;9.55;47.31;100210.81;1712608;83;21057;-67
2022/01/09 09:31:16;;;;;;;7.97;2.83;;;;;;;9.60;47.52;100224.09;1711542;82;22542;-63
2022/01/09 09:33:44;;;;;;;13.25;6.28;;;;;;;9.40;47.96;100214.19;1711664;83;22185;-61
2022/01/09 09:36:11;;;;;;;8.80;4.35;;;;;;;9.50;48.11;100202.20;1714076;82;20994;-61
2022/01/09 09:38:37;;;;;;;6.83;3.90;;;;;;;9.67;48.10;100199.77;1714742;83;20990;-64
2022/01/09 09:41:04;;;;;;;6.97;4.10;;;;;;;9.82;47.90;100194.58;1712969;83;20995;-62
2022/01/09 09:43:32;;;;;;;7.08;4.20;;;;;;;9.88;47.90;100192.54;1714813;83;21124;-62
2022/01/09 09:46:00;;;;;;;8.48;4.80;;;;;;;9.66;48.26;100204.67;1711307;83;21215;-64
2022/01/09 09:48:29;;;;;;;7.78;3.95;;;;;;;9.68;48.50;100192.27;1713396;83;21483;-61
2022/01/09 09:50:56;;;;;;;7.50;3.77;;;;;;;9.92;48.33;100187.28;1712071;83;21453;-68
2022/01/09 09:53:23;;;;;;;9.48;4.17;;;;;;;10.02;48.40;100187.52;1714417;83;21029;-61
2022/01/09 09:55:53;;;;;;;8.80;4.03;;;;;;;10.09;48.10;100183.20;1714418;83;21249;-62
2022/01/09 09:58:22;;;;;;;6.40;3.45;;;;;;;10.18;48.02;100180.80;1712927;82;20947;-61
2022/01/09 10:00:55;;;;;;;7.80;3.42;;;;;;;10.15;47.74;100174.19;1712963;83;20952;-61
2022/01/09 10:03:35;;;;;;;6.87;3.20;;;;;;;10.14;47.70;100173.84;1708598;83;21074;-61
2022/01/09 10:06:05;;;;;;;8.93;4.22;;;;;;;10.05;47.73;100167.14;1702526;83;21576;-62
2022/01/09 10:08:38;;;;;;;8.60;4.50;;;;;;;10.10;47.78;100152.26;1704066;83;21222;-62
2022/01/09 10:11:17;;;;;;;7.50;4.60;;;;;;;10.21;47.70;100155.70;1700370;82;21122;-62
2022/01/09 10:13:44;;;;;;;6.33;3.55;;;;;;;10.32;47.52;100146.14;1703680;83;21544;-61
2022/01/09 10:16:11;;;;;;;8.43;4.90;;;;;;;10.43;47.29;100138.34;1704896;83;21073;-67
2022/01/09 10:18:48;;;;;;;7.70;4.60;;;;;;;10.45;47.17;100146.30;1706067;83;20987;-67
2022/01/09 10:21:21;;;;;;;8.35;4.00;;;;;;;10.30;47.34;100147.30;1703686;83;22381;-62
2022/01/09 10:24:11;;;;;;;7.35;3.98;;;;;;;10.33;47.38;100149.05;1704806;83;20964;-63
2022/01/09 10:26:40;;;;;;;10.55;3.80;;;;;;;10.27;47.28;100152.91;1701893;82;21029;-65
2022/01/09 10:29:08;;;;;;;6.95;3.85;;;;;;;10.50;47.28;100142.33;1705797;83;21609;-62
2022/01/09 10:31:46;;;;;;;7.95;3.70;;;;;;;10.34;47.66;100137.66;1702853;83;21061;-63
2022/01/09 10:34:15;;;;;;;7.95;4.45;;;;;;;10.29;47.89;100145.20;1701720;82;21167;-64
2022/01/09 10:36:49;;;;;;;7.65;3.80;;;;;;;10.25;48.17;100142.65;1660065;83;21501;-63
2022/01/09 10:39:26;;;;;;;7.65;3.55;;;;;;;10.44;47.82;100134.23;1704089;82;20971;-63
2022/01/09 10:42:03;;;;;;;7.85;4.28;;;;;;;10.65;47.48;100133.95;1702756;82;20975;-64
2022/01/09 10:44:35;;;;;;;6.20;3.17;;;;;;;10.34;47.99;100129.84;1704555;82;21062;-63
2022/01/09 10:47:08;;;;;;;7.05;3.85;;;;;;;10.33;48.20;100120.39;1689163;83;21159;-63
2022/01/09 10:49:40;;;;;;;10.10;5.70;;;;;;;10.66;47.82;100136.36;1707711;83;20952;-69
2022/01/09 10:52:25;;;;;;;7.47;3.62;;;;;;;10.56;48.01;100124.13;1707217;83;21157;-69
2022/01/09 10:54:54;;;;;;;9.78;3.30;;;;;;;10.86;47.39;100115.67;1707875;83;21126;-65
2022/01/09 10:57:37;;;;;;;8.58;3.83;;;;;;;10.67;47.38;100113.70;1706448;83;20995;-65
2022/01/09 11:00:15;;;;;;;7.80;3.98;;;;;;;10.84;47.26;100107.24;1707737;83;21112;-63
2022/01/09 11:02:45;;;;;;;6.85;3.65;;;;;;;11.26;46.71;100104.74;1707636;83;21003;-67
2022/01/09 11:05:11;;;;;;;7.65;3.90;;;;;;;11.26;46.07;100095.61;1702881;84;21156;-63
2022/01/09 11:07:42;;;;;;;6.03;3.15;;;;;;;11.10;46.47;100094.91;1702940;84;21046;-64
2022/01/09 11:10:13;;;;;;;7.25;3.47;;;;;;;9.94;48.35;100097.30;1677282;84;21006;-63
2022/01/09 11:12:47;;;;;;;6.45;3.52;;;;;;;10.38;48.20;100094.60;1646047;85;21140;-65
2022/01/09 11:15:16;;;;;;;6.87;4.10;;;;;;;10.38;48.10;100099.81;1697518;84;20900;-69
2022/01/09 11:17:42;;;;;;;6.12;4.15;;;;;;;10.40;48.34;100079.58;1699450;83;21054;-65
2022/01/09 11:20:14;;;;;;;11.10;3.52;;;;;;;10.69;47.90;100083.86;1696662;84;21075;-64
2022/01/09 11:22:42;;;;;;;6.67;3.47;;;;;;;10.76;47.31;100083.91;1699746;83;21646;-66
2022/01/09 11:25:30;;;;;;;7.40;3.92;;;;;;;10.65;47.55;100086.53;1697302;84;21478;-68
2022/01/09 11:28:24;;;;;;;7.70;4.35;;;;;;;10.51;48.03;100078.78;1697789;84;20995;-64
2022/01/09 11:31:11;;;;;;;7.20;4.42;;;;;;;10.88;47.53;100086.31;1663175;84;20967;-65
2022/01/09 11:33:49;;;;;;;8.80;4.87;;;;;;;10.94;47.36;100082.13;1693817;84;20936;-64
2022/01/09 11:36:21;;;;;;;13.40;6.25;;;;;;;11.15;47.33;100083.89;1669046;84;21080;-65
2022/01/09 11:39:17;;;;;;;16.12;7.72;;;;;;;11.13;46.92;100081.45;1699856;84;21162;-65